createdAt,value
2019-03-23T00:01:15.597Z,71.90
2019-03-23T00:03:42.312Z,70.77
2019-03-23T00:06:09.129Z,71.93
2019-03-23T00:08:35.840Z,71.77
2019-03-23T00:11:02.579Z,69.17
2019-03-23T00:13:29.378Z,69.93
2019-03-23T00:15:56.105Z,70.17
2019-03-23T00:18:22.790Z,79.60
2019-03-23T00:20:49.571Z,69.20
2019-03-23T00:23:16.272Z,66.13
2019-03-23T00:25:42.983Z,66.67
2019-03-23T00:28:09.740Z,77.77
2019-03-23T00:30:36.441Z,65.47
2019-03-23T00:33:03.070Z,71.37
2019-03-23T00:35:29.855Z,64.97
2019-03-23T00:37:56.600Z,66.80
2019-03-23T00:40:23.332Z,70.07
2019-03-23T00:42:50.093Z,62.43
2019-03-23T00:45:16.757Z,74.83
2019-03-23T00:47:43.457Z,66.40
2019-03-23T00:50:10.256Z,68.90
2019-03-23T00:52:36.986Z,64.93
2019-03-23T00:55:03.718Z,70.10
2019-03-23T00:57:30.513Z,64.70
2019-03-23T00:59:57.216Z,58.20
2019-03-23T01:02:24.155Z,62.50
2019-03-23T01:04:51.158Z,55.97
2019-03-23T01:07:17.877Z,65.20
2019-03-23T01:09:44.599Z,59.43
2019-03-23T01:12:11.351Z,58.53
2019-03-23T01:14:38.071Z,66.83
2019-03-23T01:17:04.800Z,62.37
2019-03-23T01:19:31.588Z,55.17
2019-03-23T01:21:58.295Z,62.00
2019-03-23T01:24:25.016Z,58.90
2019-03-23T01:26:51.803Z,56.83
2019-03-23T01:29:18.513Z,50.23
2019-03-23T01:31:45.209Z,53.47
2019-03-23T01:34:12.370Z,56.87
2019-03-23T01:36:39.098Z,55.77
2019-03-23T01:39:05.802Z,59.50
2019-03-23T01:41:32.483Z,59.77
2019-03-23T01:43:59.107Z,61.77
2019-03-23T01:46:25.841Z,60.00
2019-03-23T01:48:52.623Z,59.53
2019-03-23T01:51:19.350Z,73.43
2019-03-23T01:53:46.089Z,54.17
2019-03-23T01:56:12.860Z,54.70
2019-03-23T01:58:39.598Z,59.50
2019-03-23T02:01:06.310Z,57.37
2019-03-23T02:03:33.083Z,49.57
2019-03-23T02:05:59.827Z,46.43
2019-03-23T02:08:26.563Z,51.80
2019-03-23T02:10:53.300Z,49.97
2019-03-23T02:13:19.928Z,57.93
2019-03-23T02:15:46.654Z,53.73
2019-03-23T02:18:13.443Z,56.30
2019-03-23T02:20:40.170Z,55.33
2019-03-23T02:23:06.865Z,51.13
2019-03-23T02:25:33.928Z,56.93
2019-03-23T02:28:00.660Z,56.27
2019-03-23T02:30:27.359Z,54.90
2019-03-23T02:32:54.070Z,56.93
2019-03-23T02:35:20.825Z,61.87
2019-03-23T02:37:47.531Z,64.33
2019-03-23T02:40:14.330Z,62.93
2019-03-23T02:42:41.042Z,69.10
2019-03-23T02:45:07.773Z,71.00
2019-03-23T02:47:34.620Z,63.90
2019-03-23T02:50:01.329Z,68.50
2019-03-23T02:52:28.030Z,71.90
2019-03-23T02:54:54.829Z,63.87
2019-03-23T02:57:21.591Z,53.50
2019-03-23T02:59:48.277Z,49.67
2019-03-23T03:02:15.036Z,52.17
2019-03-23T03:04:41.744Z,54.90
2019-03-23T03:07:08.476Z,43.50
2019-03-23T03:09:35.412Z,43.00
2019-03-23T03:12:02.134Z,42.23
2019-03-23T03:14:28.857Z,39.47
2019-03-23T03:16:55.632Z,34.73
2019-03-23T03:19:22.328Z,34.47
2019-03-23T03:21:49.053Z,31.20
2019-03-23T03:24:15.880Z,33.43
2019-03-23T03:26:42.609Z,37.50
2019-03-23T03:29:09.332Z,34.80
2019-03-23T03:31:36.094Z,31.97
2019-03-23T03:34:02.827Z,37.70
2019-03-23T03:36:30.196Z,35.90
2019-03-23T03:38:57.048Z,50.70
2019-03-23T03:41:23.788Z,42.60
2019-03-23T03:43:50.513Z,44.10
2019-03-23T03:46:17.302Z,40.87
2019-03-23T03:48:44.001Z,30.87
2019-03-23T03:51:10.689Z,41.70
2019-03-23T03:53:37.469Z,34.67
2019-03-23T03:56:04.186Z,49.50
2019-03-23T03:58:30.893Z,35.10
2019-03-23T04:00:57.749Z,36.00
2019-03-23T04:03:24.449Z,39.80
2019-03-23T04:05:51.212Z,31.57
2019-03-23T04:08:17.966Z,32.30
2019-03-23T04:10:44.666Z,40.17
2019-03-23T04:13:11.380Z,31.43
2019-03-23T04:15:38.173Z,35.50
2019-03-23T04:18:04.870Z,57.70
2019-03-23T04:20:31.599Z,77.83
2019-03-23T04:22:58.406Z,68.90
2019-03-23T04:25:25.137Z,76.67
2019-03-23T04:27:51.841Z,70.80
2019-03-23T04:30:18.622Z,87.73
2019-03-23T04:32:45.326Z,72.43
2019-03-23T04:35:12.059Z,79.43
2019-03-23T04:37:38.852Z,83.87
2019-03-23T04:40:05.563Z,76.20
2019-03-23T04:42:32.261Z,71.80
2019-03-23T04:44:59.041Z,67.73
2019-03-23T04:47:25.791Z,69.87
2019-03-23T04:49:52.484Z,66.77
2019-03-23T04:52:19.267Z,66.30
2019-03-23T04:54:46.005Z,62.10
2019-03-23T04:57:12.867Z,58.63
2019-03-23T04:59:39.698Z,56.73
2019-03-23T05:02:06.543Z,53.47
2019-03-23T05:04:33.231Z,54.00
2019-03-23T05:07:00.113Z,53.70
2019-03-23T05:09:26.843Z,49.70
2019-03-23T05:11:53.587Z,44.50
2019-03-23T05:14:20.432Z,39.77
2019-03-23T05:16:47.478Z,43.83
2019-03-23T05:19:14.213Z,41.17
2019-03-23T05:21:41.056Z,50.83
2019-03-23T05:24:07.857Z,40.47
2019-03-23T05:26:34.638Z,44.43
2019-03-23T05:29:01.495Z,42.87
2019-03-23T05:31:28.214Z,40.20
2019-03-23T05:33:54.963Z,38.90
2019-03-23T05:36:21.808Z,42.90
2019-03-23T05:38:48.537Z,40.53
2019-03-23T05:41:15.389Z,41.93
2019-03-23T05:43:42.228Z,40.23
2019-03-23T05:46:08.972Z,39.07
2019-03-23T05:48:35.697Z,38.90
2019-03-23T05:51:02.484Z,44.90
2019-03-23T05:53:29.499Z,51.73
2019-03-23T05:55:56.228Z,46.20
2019-03-23T05:58:23.075Z,43.67
2019-03-23T06:00:49.802Z,49.33
2019-03-23T06:03:16.548Z,52.07
2019-03-23T06:05:43.397Z,42.70
2019-03-23T06:08:10.137Z,46.37
2019-03-23T06:10:36.975Z,48.83
2019-03-23T06:13:03.871Z,45.70
2019-03-23T06:15:30.773Z,39.93
2019-03-23T06:17:57.467Z,51.50
2019-03-23T06:20:24.194Z,40.13
2019-03-23T06:22:50.929Z,41.00
2019-03-23T06:25:17.664Z,39.37
2019-03-23T06:27:44.445Z,39.90
2019-03-23T06:30:11.134Z,42.53
2019-03-23T06:32:37.787Z,38.47
2019-03-23T06:35:04.571Z,40.87
2019-03-23T06:37:31.289Z,39.70
2019-03-23T06:39:58.027Z,44.30
2019-03-23T06:42:24.833Z,44.47
2019-03-23T06:44:51.538Z,41.17
2019-03-23T06:47:18.245Z,40.23
2019-03-23T06:49:45.035Z,38.37
2019-03-23T06:52:11.775Z,41.50
2019-03-23T06:54:38.474Z,41.33
2019-03-23T06:57:05.240Z,41.07
2019-03-23T06:59:31.858Z,39.83
2019-03-23T07:01:58.555Z,36.67
2019-03-23T07:04:26.755Z,44.70
2019-03-23T07:06:53.663Z,40.30
2019-03-23T07:09:20.883Z,46.00
2019-03-23T07:11:47.684Z,51.60
2019-03-23T07:14:14.376Z,41.90
2019-03-23T07:16:41.087Z,44.10
2019-03-23T07:19:08.122Z,50.40
2019-03-23T07:21:36.878Z,46.03
2019-03-23T07:24:04.656Z,51.77
2019-03-23T07:26:31.602Z,41.83
2019-03-23T07:28:58.367Z,50.30
2019-03-23T07:31:25.850Z,44.00
2019-03-23T07:33:52.721Z,49.80
2019-03-23T07:36:19.504Z,48.70
2019-03-23T07:38:46.339Z,61.10
2019-03-23T07:41:13.190Z,54.47
2019-03-23T07:43:40.039Z,45.73
2019-03-23T07:46:06.889Z,57.40
2019-03-23T07:48:33.723Z,54.40
2019-03-23T07:51:00.450Z,49.43
2019-03-23T07:53:27.199Z,46.23
2019-03-23T07:55:54.788Z,51.87
2019-03-23T07:58:21.447Z,57.93
2019-03-23T08:00:48.367Z,54.23
2019-03-23T08:03:15.089Z,57.00
2019-03-23T08:05:41.913Z,52.83
2019-03-23T08:08:08.656Z,58.10
2019-03-23T08:10:35.938Z,60.17
2019-03-23T08:13:02.950Z,57.80
2019-03-23T08:15:29.807Z,51.93
2019-03-23T08:17:56.634Z,58.83
2019-03-23T08:20:23.482Z,60.33
2019-03-23T08:22:50.310Z,60.70
2019-03-23T08:25:17.623Z,60.80
2019-03-23T08:27:44.414Z,61.03
2019-03-23T08:30:11.256Z,60.10
2019-03-23T08:32:38.132Z,59.97
2019-03-23T08:35:04.837Z,63.93
2019-03-23T08:37:31.663Z,62.57
2019-03-23T08:39:58.516Z,61.77
2019-03-23T08:42:25.357Z,60.70
2019-03-23T08:44:52.202Z,61.80
2019-03-23T08:47:19.051Z,52.17
2019-03-23T08:49:45.903Z,53.60
2019-03-23T08:52:12.738Z,59.25
2019-03-23T08:54:40.000Z,63.00
2019-03-23T08:57:06.714Z,46.37
2019-03-23T08:59:33.451Z,49.90
2019-03-23T09:02:00.250Z,61.33
2019-03-23T09:04:27.032Z,50.25
2019-03-23T09:06:53.769Z,42.88
2019-03-23T09:09:20.620Z,49.98
2019-03-23T09:11:47.347Z,42.00
2019-03-23T09:14:14.092Z,39.98
2019-03-23T09:16:40.937Z,47.93
2019-03-23T09:19:07.792Z,44.18
2019-03-23T09:21:34.505Z,48.48
2019-03-23T09:24:01.352Z,51.05
2019-03-23T09:26:28.087Z,49.67
2019-03-23T09:28:54.834Z,47.08
2019-03-23T09:31:21.576Z,48.30
2019-03-23T09:33:48.285Z,50.17
2019-03-23T09:36:15.049Z,39.88
2019-03-23T09:38:41.903Z,45.48
2019-03-23T09:41:08.738Z,44.10
2019-03-23T09:43:35.879Z,48.30
2019-03-23T09:46:02.851Z,53.50
2019-03-23T09:48:29.601Z,54.70
2019-03-23T09:50:56.327Z,51.13
2019-03-23T09:53:23.138Z,50.12
2019-03-23T09:55:49.882Z,44.27
2019-03-23T09:58:16.628Z,43.40
2019-03-23T10:00:43.414Z,44.73
2019-03-23T10:03:10.159Z,40.78
2019-03-23T10:05:36.907Z,46.90
2019-03-23T10:08:03.691Z,45.17
2019-03-23T10:10:30.364Z,44.25
2019-03-23T10:12:57.058Z,46.20
2019-03-23T10:15:23.753Z,44.60
2019-03-23T10:17:50.459Z,40.98
2019-03-23T10:20:17.091Z,41.98
2019-03-23T10:22:43.767Z,39.63
2019-03-23T10:25:10.476Z,37.15
2019-03-23T10:27:37.133Z,42.05
2019-03-23T10:30:03.920Z,42.33
2019-03-23T10:32:30.657Z,36.63
2019-03-23T10:34:57.344Z,37.60
2019-03-23T10:37:26.047Z,35.35
2019-03-23T10:39:52.480Z,32.83
2019-03-23T10:42:19.216Z,35.25
2019-03-23T10:44:45.959Z,35.85
2019-03-23T10:47:12.707Z,36.15
2019-03-23T10:49:39.364Z,36.73
2019-03-23T10:52:06.229Z,39.65
2019-03-23T10:54:33.171Z,33.70
2019-03-23T10:57:00.050Z,33.33
2019-03-23T10:59:28.044Z,37.33
2019-03-23T11:01:54.771Z,35.85
2019-03-23T11:04:21.490Z,35.73
2019-03-23T11:06:48.300Z,33.73
2019-03-23T11:09:15.024Z,35.05
2019-03-23T11:11:41.765Z,37.42
2019-03-23T11:14:08.566Z,34.20
2019-03-23T11:16:35.282Z,35.38
2019-03-23T11:19:02.002Z,32.00
2019-03-23T11:21:28.774Z,36.63
2019-03-23T11:23:55.503Z,36.90
2019-03-23T11:26:22.230Z,34.27
2019-03-23T11:28:49.026Z,34.33
2019-03-23T11:31:15.781Z,32.05
2019-03-23T11:33:42.465Z,33.98
2019-03-23T11:36:09.535Z,32.33
2019-03-23T11:38:36.269Z,35.15
2019-03-23T11:41:03.007Z,32.83
2019-03-23T11:43:29.790Z,39.03
2019-03-23T11:45:56.524Z,32.48
2019-03-23T11:48:23.373Z,31.80
2019-03-23T11:50:50.216Z,29.57
2019-03-23T11:53:16.958Z,29.98
2019-03-23T11:55:43.685Z,32.05
2019-03-23T11:58:10.396Z,31.77
2019-03-23T12:00:37.177Z,31.15
2019-03-23T12:03:04.078Z,36.33
2019-03-23T12:05:30.886Z,32.40
2019-03-23T12:07:57.583Z,33.38
2019-03-23T12:10:24.237Z,30.95
2019-03-23T12:12:51.042Z,32.40
2019-03-23T12:15:17.760Z,29.27
2019-03-23T12:17:44.482Z,31.12
2019-03-23T12:20:11.266Z,29.55
2019-03-23T12:22:37.995Z,26.35
2019-03-23T12:25:04.753Z,26.27
2019-03-23T12:27:31.512Z,24.23
2019-03-23T12:30:06.765Z,24.47
2019-03-23T12:32:26.603Z,25.92
2019-03-23T12:34:53.288Z,28.62
2019-03-23T12:37:20.018Z,24.55
2019-03-23T12:39:46.721Z,24.85
2019-03-23T12:42:13.486Z,23.62
2019-03-23T12:44:40.209Z,24.67
2019-03-23T12:47:06.918Z,24.30
2019-03-23T12:49:34.047Z,22.77
2019-03-23T12:52:00.855Z,24.43
2019-03-23T12:54:27.555Z,23.02
2019-03-23T12:56:54.349Z,24.43
2019-03-23T12:59:23.333Z,25.40
2019-03-23T13:01:51.941Z,21.52
2019-03-23T13:04:18.984Z,22.02
2019-03-23T13:06:46.010Z,21.00
2019-03-23T13:09:14.283Z,19.70
2019-03-23T13:11:41.329Z,19.65
2019-03-23T13:14:08.053Z,20.70
2019-03-23T13:16:36.319Z,25.43
2019-03-23T13:19:04.817Z,19.67
2019-03-23T13:21:31.722Z,23.10
2019-03-23T13:23:59.863Z,19.73
2019-03-23T13:26:26.652Z,17.67
2019-03-23T13:28:53.394Z,19.25
2019-03-23T13:31:20.125Z,17.42
2019-03-23T13:33:46.930Z,16.62
2019-03-23T13:36:14.320Z,15.43
2019-03-23T13:38:42.539Z,16.75
2019-03-23T13:41:09.507Z,16.42
2019-03-23T13:43:37.057Z,14.95
2019-03-23T13:46:05.180Z,15.95
2019-03-23T13:48:33.615Z,15.03
2019-03-23T13:51:01.194Z,17.30
2019-03-23T13:53:29.236Z,19.07
2019-03-23T13:55:57.974Z,18.45
2019-03-23T13:58:24.933Z,18.27
2019-03-23T14:00:51.668Z,17.00
2019-03-23T14:03:18.470Z,17.95
2019-03-23T14:05:45.773Z,13.98
2019-03-23T14:08:12.645Z,16.45
2019-03-23T14:10:39.508Z,16.42
2019-03-23T14:13:06.579Z,16.27
2019-03-23T14:15:33.604Z,16.15
2019-03-23T14:18:00.504Z,13.68
2019-03-23T14:20:27.480Z,14.80
2019-03-23T14:23:02.308Z,16.02
2019-03-23T14:25:23.021Z,17.95
2019-03-23T14:27:49.735Z,16.05
2019-03-23T14:30:16.414Z,18.70
2019-03-23T14:32:43.192Z,17.35
2019-03-23T14:35:10.028Z,18.07
2019-03-23T14:37:36.954Z,14.85
2019-03-23T14:40:03.716Z,18.25
2019-03-23T14:42:30.460Z,15.20
2019-03-23T14:44:57.169Z,17.50
2019-03-23T14:47:23.973Z,17.02
2019-03-23T14:49:50.661Z,18.12
2019-03-23T14:52:17.388Z,15.72
2019-03-23T14:54:44.186Z,16.50
2019-03-23T14:57:10.925Z,19.37
2019-03-23T14:59:37.674Z,18.85
2019-03-23T15:02:04.460Z,14.45
2019-03-23T15:04:31.167Z,16.05
2019-03-23T15:06:57.925Z,14.80
2019-03-23T15:09:25.157Z,16.55
2019-03-23T15:11:52.034Z,13.60
2019-03-23T15:14:18.732Z,15.95
2019-03-23T15:16:45.698Z,14.65
2019-03-23T15:19:12.531Z,15.75
2019-03-23T15:21:39.245Z,14.93
2019-03-23T15:24:06.759Z,15.15
2019-03-23T15:26:34.693Z,15.98
2019-03-23T15:29:01.466Z,15.83
2019-03-23T15:31:28.234Z,14.55
2019-03-23T15:33:54.984Z,15.65
2019-03-23T15:36:21.728Z,15.32
2019-03-23T15:38:48.661Z,15.35
2019-03-23T15:41:15.412Z,15.43
2019-03-23T15:43:42.141Z,16.12
2019-03-23T15:46:08.961Z,18.45
2019-03-23T15:48:35.669Z,15.83
2019-03-23T15:51:02.410Z,16.60
2019-03-23T15:53:29.235Z,16.00
2019-03-23T15:55:55.975Z,15.35
2019-03-23T15:58:22.727Z,17.30
2019-03-23T16:00:50.198Z,13.20
2019-03-23T16:03:16.933Z,15.67
2019-03-23T16:05:43.761Z,15.60
2019-03-23T16:08:10.616Z,16.13
2019-03-23T16:10:37.521Z,23.70
2019-03-23T16:13:04.290Z,16.40
2019-03-23T16:15:31.068Z,16.40
2019-03-23T16:17:57.804Z,17.47
2019-03-23T16:20:24.514Z,18.30
2019-03-23T16:22:51.282Z,15.70
2019-03-23T16:25:17.932Z,17.20
2019-03-23T16:27:44.689Z,17.27
2019-03-23T16:30:11.464Z,18.50
2019-03-23T16:32:38.219Z,15.77
2019-03-23T16:35:04.916Z,16.90
2019-03-23T16:37:31.713Z,16.37
2019-03-23T16:39:58.533Z,17.90
2019-03-23T16:42:25.363Z,15.80
2019-03-23T16:44:52.517Z,14.03
2019-03-23T16:47:19.214Z,21.50
2019-03-23T16:49:46.002Z,15.17
2019-03-23T16:52:12.846Z,16.93
2019-03-23T16:54:39.676Z,20.53
2019-03-23T16:57:06.516Z,16.50
2019-03-23T16:59:33.378Z,19.57
2019-03-23T17:02:00.301Z,15.83
2019-03-23T17:04:27.032Z,15.50
2019-03-23T17:06:53.882Z,20.60
2019-03-23T17:09:20.726Z,26.40
2019-03-23T17:11:47.583Z,20.80
2019-03-23T17:14:14.431Z,17.93
2019-03-23T17:16:41.273Z,22.07
2019-03-23T17:19:08.095Z,22.03
2019-03-23T17:21:34.953Z,21.20
2019-03-23T17:24:01.764Z,20.70
2019-03-23T17:26:28.507Z,19.80
2019-03-23T17:28:55.262Z,27.60
2019-03-23T17:31:22.006Z,19.07
2019-03-23T17:33:48.728Z,22.67
2019-03-23T17:36:15.579Z,18.73
2019-03-23T17:38:42.301Z,20.33
2019-03-23T17:41:10.377Z,19.37
2019-03-23T17:43:37.433Z,23.70
2019-03-23T17:46:04.170Z,21.30
2019-03-23T17:48:31.011Z,22.53
2019-03-23T17:50:57.854Z,25.60
2019-03-23T17:53:24.697Z,29.20
2019-03-23T17:55:51.435Z,21.97
2019-03-23T17:58:18.283Z,27.70
2019-03-23T18:00:45.115Z,25.40
2019-03-23T18:03:11.874Z,35.50
2019-03-23T18:05:38.857Z,33.03
2019-03-23T18:08:05.752Z,37.43
2019-03-23T18:10:34.012Z,32.13
2019-03-23T18:13:01.082Z,27.00
2019-03-23T18:15:28.528Z,34.63
2019-03-23T18:17:55.295Z,40.10
2019-03-23T18:20:22.806Z,29.40
2019-03-23T18:22:49.573Z,30.83
2019-03-23T18:25:16.805Z,29.23
2019-03-23T18:27:43.868Z,32.73
2019-03-23T18:30:10.697Z,40.33
2019-03-23T18:32:37.553Z,35.13
2019-03-23T18:35:04.694Z,37.03
2019-03-23T18:37:31.397Z,40.00
2019-03-23T18:39:58.185Z,35.90
2019-03-23T18:42:24.907Z,50.10
2019-03-23T18:44:52.182Z,40.80
2019-03-23T18:47:18.942Z,45.77
2019-03-23T18:49:46.188Z,47.30
2019-03-23T18:52:12.945Z,49.07
2019-03-23T18:54:40.628Z,42.37
2019-03-23T18:57:08.574Z,47.67
2019-03-23T18:59:37.397Z,54.27
2019-03-23T19:02:05.669Z,40.30
2019-03-23T19:04:33.721Z,42.67
2019-03-23T19:07:02.001Z,45.80
2019-03-23T19:09:30.354Z,43.13
2019-03-23T19:11:57.341Z,39.27
2019-03-23T19:14:25.336Z,49.93
2019-03-23T19:16:52.288Z,46.07
2019-03-23T19:19:20.257Z,41.90
2019-03-23T19:21:47.151Z,39.33
2019-03-23T19:24:14.896Z,52.30
2019-03-23T19:26:43.988Z,50.73
2019-03-23T19:29:12.524Z,46.70
2019-03-23T19:31:39.499Z,43.77
2019-03-23T19:34:06.251Z,61.93
2019-03-23T19:36:32.996Z,55.43
2019-03-23T19:38:59.736Z,47.27
2019-03-23T19:41:26.559Z,44.83
2019-03-23T19:43:53.305Z,43.37
2019-03-23T19:46:20.010Z,40.77
2019-03-23T19:48:46.827Z,47.83
2019-03-23T19:51:13.550Z,46.83
2019-03-23T19:53:40.813Z,47.63
2019-03-23T19:56:08.320Z,49.20
2019-03-23T19:58:35.158Z,50.63
2019-03-23T20:01:02.418Z,47.33
2019-03-23T20:03:29.390Z,47.70
2019-03-23T20:05:56.305Z,43.17
2019-03-23T20:08:25.462Z,51.30
2019-03-23T20:10:51.587Z,58.97
2019-03-23T20:13:18.414Z,70.70
2019-03-23T20:15:45.550Z,67.50
2019-03-23T20:18:12.348Z,61.47
2019-03-23T20:20:39.230Z,71.50
2019-03-23T20:23:06.255Z,72.10
2019-03-23T20:25:33.134Z,60.27
2019-03-23T20:27:59.913Z,81.27
2019-03-23T20:30:27.650Z,66.73
2019-03-23T20:32:54.857Z,67.53
2019-03-23T20:35:21.965Z,67.27
2019-03-23T20:37:48.640Z,60.50
2019-03-23T20:40:15.720Z,57.63
2019-03-23T20:42:43.843Z,51.20
2019-03-23T20:45:11.367Z,75.07
2019-03-23T20:47:38.623Z,66.40
2019-03-23T20:50:05.570Z,75.13
2019-03-23T20:52:32.773Z,84.57
2019-03-23T20:54:59.572Z,68.67
2019-03-23T20:57:36.638Z,88.10
2019-03-23T20:59:55.124Z,70.93
2019-03-23T21:02:23.261Z,82.17
2019-03-23T21:04:50.790Z,71.10
2019-03-23T21:07:19.297Z,77.97
2019-03-23T21:09:47.722Z,65.93
2019-03-23T21:12:15.841Z,76.50
2019-03-23T21:14:43.464Z,81.43
2019-03-23T21:17:10.408Z,75.87
2019-03-23T21:19:38.307Z,75.53
2019-03-23T21:22:05.892Z,90.20
2019-03-23T21:24:34.436Z,93.50
2019-03-23T21:27:01.308Z,99.27
2019-03-23T21:29:28.470Z,83.07
2019-03-23T21:31:55.195Z,95.33
2019-03-23T21:34:21.969Z,100.33
2019-03-23T21:36:48.750Z,108.57
2019-03-23T21:39:15.498Z,108.67
2019-03-23T21:41:42.129Z,104.20
2019-03-23T21:44:08.877Z,101.20
2019-03-23T21:46:35.994Z,100.03
2019-03-23T21:49:02.960Z,100.33
2019-03-23T21:51:29.690Z,99.43
2019-03-23T21:53:56.456Z,120.03
2019-03-23T21:56:23.148Z,120.47
2019-03-23T21:58:49.826Z,117.27
2019-03-23T22:01:17.308Z,124.00
2019-03-23T22:03:44.322Z,100.17
2019-03-23T22:06:11.053Z,116.37
2019-03-23T22:08:38.096Z,116.63
2019-03-23T22:11:05.074Z,121.83
2019-03-23T22:13:31.792Z,127.30
2019-03-23T22:15:58.634Z,111.10
2019-03-23T22:18:25.469Z,108.73
2019-03-23T22:20:52.319Z,127.43
2019-03-23T22:23:19.520Z,113.17
2019-03-23T22:25:46.314Z,97.07
2019-03-23T22:28:13.238Z,129.33
2019-03-23T22:30:40.002Z,123.23
2019-03-23T22:33:06.725Z,123.33
2019-03-23T22:35:33.440Z,119.77
2019-03-23T22:38:00.224Z,139.17
2019-03-23T22:40:28.225Z,148.03
2019-03-23T22:42:55.069Z,145.63
2019-03-23T22:45:21.861Z,152.73
2019-03-23T22:47:48.597Z,152.17
2019-03-23T22:50:15.348Z,149.13
2019-03-23T22:52:42.093Z,135.37
2019-03-23T22:55:08.827Z,132.70
2019-03-23T22:57:35.566Z,141.70
2019-03-23T23:00:02.343Z,133.43
2019-03-23T23:02:29.062Z,153.70
2019-03-23T23:04:55.823Z,141.00
2019-03-23T23:07:22.589Z,136.20
2019-03-23T23:09:49.281Z,129.33
2019-03-23T23:12:16.052Z,145.87
2019-03-23T23:14:42.819Z,143.40
2019-03-23T23:17:09.519Z,152.73
2019-03-23T23:19:36.241Z,148.10
2019-03-23T23:22:02.997Z,153.37
2019-03-23T23:24:29.630Z,144.87
2019-03-23T23:26:56.261Z,144.30
2019-03-23T23:29:23.061Z,138.83
2019-03-23T23:31:49.752Z,158.27
2019-03-23T23:34:16.412Z,135.43
2019-03-23T23:36:43.197Z,132.60
2019-03-23T23:39:09.891Z,150.60
2019-03-23T23:41:36.620Z,160.77
2019-03-23T23:44:03.367Z,152.57
2019-03-23T23:46:30.021Z,149.63
2019-03-23T23:48:56.717Z,137.67
2019-03-23T23:51:23.470Z,133.50
2019-03-23T23:53:50.218Z,149.53
2019-03-23T23:56:16.892Z,145.80
2019-03-23T23:58:43.571Z,134.03
